sensor_id;sensor_type;location;lat;lon;timestamp;P1;durP1;ratioP1;P2;durP2;ratioP2
5742;SDS011;2896;53.500;10.020;2022-12-19T00:00:41;37.00;;;17.60;;
5742;SDS011;2896;53.500;10.020;2022-12-19T00:03:07;35.17;;;19.00;;
5742;SDS011;2896;53.500;10.020;2022-12-19T00:05:35;41.20;;;19.23;;
5742;SDS011;2896;53.500;10.020;2022-12-19T00:08:03;34.53;;;19.47;;
5742;SDS011;2896;53.500;10.020;2022-12-19T00:10:30;37.00;;;17.80;;
5742;SDS011;2896;53.500;10.020;2022-12-19T00:12:56;38.13;;;19.30;;
5742;SDS011;2896;53.500;10.020;2022-12-19T00:15:23;37.57;;;19.03;;
5742;SDS011;2896;53.500;10.020;2022-12-19T00:17:51;45.40;;;21.30;;
5742;SDS011;2896;53.500;10.020;2022-12-19T00:20:17;38.57;;;19.33;;
5742;SDS011;2896;53.500;10.020;2022-12-19T00:22:44;38.97;;;19.13;;
5742;SDS011;2896;53.500;10.020;2022-12-19T00:25:11;37.70;;;19.17;;
5742;SDS011;2896;53.500;10.020;2022-12-19T00:27:37;40.60;;;20.13;;
5742;SDS011;2896;53.500;10.020;2022-12-19T00:30:05;46.00;;;20.77;;
5742;SDS011;2896;53.500;10.020;2022-12-19T00:32:32;39.57;;;19.77;;
5742;SDS011;2896;53.500;10.020;2022-12-19T00:35:00;37.27;;;19.87;;
5742;SDS011;2896;53.500;10.020;2022-12-19T00:37:26;49.30;;;20.27;;
5742;SDS011;2896;53.500;10.020;2022-12-19T00:39:53;36.07;;;18.97;;
5742;SDS011;2896;53.500;10.020;2022-12-19T00:42:20;34.93;;;18.00;;
5742;SDS011;2896;53.500;10.020;2022-12-19T00:44:47;41.97;;;21.03;;
5742;SDS011;2896;53.500;10.020;2022-12-19T00:47:13;37.30;;;18.87;;
5742;SDS011;2896;53.500;10.020;2022-12-19T00:49:40;41.13;;;19.50;;
5742;SDS011;2896;53.500;10.020;2022-12-19T00:52:08;35.50;;;19.00;;
5742;SDS011;2896;53.500;10.020;2022-12-19T00:54:34;36.87;;;19.87;;
5742;SDS011;2896;53.500;10.020;2022-12-19T00:57:01;38.20;;;19.03;;
5742;SDS011;2896;53.500;10.020;2022-12-19T00:59:28;41.87;;;20.43;;
5742;SDS011;2896;53.500;10.020;2022-12-19T01:01:55;43.73;;;20.27;;
5742;SDS011;2896;53.500;10.020;2022-12-19T01:04:22;39.53;;;21.20;;
5742;SDS011;2896;53.500;10.020;2022-12-19T01:06:48;44.73;;;21.27;;
5742;SDS011;2896;53.500;10.020;2022-12-19T01:09:16;42.67;;;19.50;;
5742;SDS011;2896;53.500;10.020;2022-12-19T01:11:45;37.07;;;18.57;;
5742;SDS011;2896;53.500;10.020;2022-12-19T01:14:29;43.00;;;19.50;;
5742;SDS011;2896;53.500;10.020;2022-12-19T01:16:56;40.67;;;20.50;;
5742;SDS011;2896;53.500;10.020;2022-12-19T01:19:22;40.90;;;19.43;;
5742;SDS011;2896;53.500;10.020;2022-12-19T01:21:49;43.30;;;21.17;;
5742;SDS011;2896;53.500;10.020;2022-12-19T01:24:17;34.50;;;18.10;;
5742;SDS011;2896;53.500;10.020;2022-12-19T01:26:43;42.80;;;19.43;;
5742;SDS011;2896;53.500;10.020;2022-12-19T01:29:10;43.87;;;19.70;;
5742;SDS011;2896;53.500;10.020;2022-12-19T01:31:37;34.30;;;18.00;;
5742;SDS011;2896;53.500;10.020;2022-12-19T01:34:03;35.73;;;19.13;;
5742;SDS011;2896;53.500;10.020;2022-12-19T01:36:30;45.80;;;21.50;;
5742;SDS011;2896;53.500;10.020;2022-12-19T01:38:56;46.13;;;21.20;;
5742;SDS011;2896;53.500;10.020;2022-12-19T01:41:24;41.77;;;22.17;;
5742;SDS011;2896;53.500;10.020;2022-12-19T01:43:56;36.33;;;18.87;;
5742;SDS011;2896;53.500;10.020;2022-12-19T01:46:25;38.37;;;20.73;;
5742;SDS011;2896;53.500;10.020;2022-12-19T01:48:55;41.47;;;19.37;;
5742;SDS011;2896;53.500;10.020;2022-12-19T01:51:22;44.70;;;21.50;;
5742;SDS011;2896;53.500;10.020;2022-12-19T01:53:55;37.77;;;19.07;;
5742;SDS011;2896;53.500;10.020;2022-12-19T01:56:27;37.17;;;20.20;;
5742;SDS011;2896;53.500;10.020;2022-12-19T01:58:57;35.53;;;19.87;;
5742;SDS011;2896;53.500;10.020;2022-12-19T02:01:27;31.40;;;17.53;;
5742;SDS011;2896;53.500;10.020;2022-12-19T02:03:54;40.03;;;18.93;;
5742;SDS011;2896;53.500;10.020;2022-12-19T02:06:23;34.50;;;19.30;;
5742;SDS011;2896;53.500;10.020;2022-12-19T02:08:50;37.07;;;17.97;;
5742;SDS011;2896;53.500;10.020;2022-12-19T02:11:16;40.07;;;19.30;;
5742;SDS011;2896;53.500;10.020;2022-12-19T02:13:44;33.50;;;18.53;;
5742;SDS011;2896;53.500;10.020;2022-12-19T02:16:14;35.80;;;19.10;;
5742;SDS011;2896;53.500;10.020;2022-12-19T02:18:50;42.03;;;20.63;;
5742;SDS011;2896;53.500;10.020;2022-12-19T02:21:34;33.83;;;18.30;;
5742;SDS011;2896;53.500;10.020;2022-12-19T02:24:21;42.37;;;19.53;;
5742;SDS011;2896;53.500;10.020;2022-12-19T02:27:05;38.13;;;18.67;;
5742;SDS011;2896;53.500;10.020;2022-12-19T02:29:53;43.80;;;19.00;;
5742;SDS011;2896;53.500;10.020;2022-12-19T02:32:33;43.87;;;18.20;;
5742;SDS011;2896;53.500;10.020;2022-12-19T02:35:13;40.70;;;20.07;;
5742;SDS011;2896;53.500;10.020;2022-12-19T02:37:47;37.10;;;19.80;;
5742;SDS011;2896;53.500;10.020;2022-12-19T02:40:18;39.40;;;17.50;;
5742;SDS011;2896;53.500;10.020;2022-12-19T02:42:52;39.20;;;19.83;;
5742;SDS011;2896;53.500;10.020;2022-12-19T02:45:24;36.03;;;19.50;;
5742;SDS011;2896;53.500;10.020;2022-12-19T02:47:53;38.30;;;19.13;;
5742;SDS011;2896;53.500;10.020;2022-12-19T02:50:20;37.40;;;18.43;;
5742;SDS011;2896;53.500;10.020;2022-12-19T02:52:47;39.27;;;20.10;;
5742;SDS011;2896;53.500;10.020;2022-12-19T02:55:16;35.50;;;20.53;;
5742;SDS011;2896;53.500;10.020;2022-12-19T02:57:50;42.60;;;19.83;;
5742;SDS011;2896;53.500;10.020;2022-12-19T03:00:35;43.70;;;20.37;;
5742;SDS011;2896;53.500;10.020;2022-12-19T03:03:10;44.83;;;20.30;;
5742;SDS011;2896;53.500;10.020;2022-12-19T03:05:45;39.63;;;19.57;;
5742;SDS011;2896;53.500;10.020;2022-12-19T03:08:22;42.43;;;21.33;;
5742;SDS011;2896;53.500;10.020;2022-12-19T03:10:53;35.77;;;19.70;;
5742;SDS011;2896;53.500;10.020;2022-12-19T03:13:24;36.10;;;19.63;;
5742;SDS011;2896;53.500;10.020;2022-12-19T03:15:54;39.77;;;20.20;;
5742;SDS011;2896;53.500;10.020;2022-12-19T03:18:23;42.03;;;19.23;;
5742;SDS011;2896;53.500;10.020;2022-12-19T03:20:51;38.23;;;20.90;;
5742;SDS011;2896;53.500;10.020;2022-12-19T03:23:24;40.93;;;20.00;;
5742;SDS011;2896;53.500;10.020;2022-12-19T03:25:53;40.00;;;19.57;;
5742;SDS011;2896;53.500;10.020;2022-12-19T03:28:25;38.30;;;19.00;;
5742;SDS011;2896;53.500;10.020;2022-12-19T03:30:58;42.00;;;21.07;;
5742;SDS011;2896;53.500;10.020;2022-12-19T03:33:30;39.53;;;20.20;;
5742;SDS011;2896;53.500;10.020;2022-12-19T03:35:58;36.90;;;20.10;;
5742;SDS011;2896;53.500;10.020;2022-12-19T03:38:26;53.13;;;20.10;;
5742;SDS011;2896;53.500;10.020;2022-12-19T03:40:53;40.03;;;20.40;;
5742;SDS011;2896;53.500;10.020;2022-12-19T03:43:21;40.33;;;20.50;;
5742;SDS011;2896;53.500;10.020;2022-12-19T03:45:51;48.47;;;21.30;;
5742;SDS011;2896;53.500;10.020;2022-12-19T03:48:24;44.93;;;21.43;;
5742;SDS011;2896;53.500;10.020;2022-12-19T03:50:56;39.20;;;21.10;;
5742;SDS011;2896;53.500;10.020;2022-12-19T03:53:35;45.30;;;21.00;;
5742;SDS011;2896;53.500;10.020;2022-12-19T03:56:12;34.43;;;19.77;;
5742;SDS011;2896;53.500;10.020;2022-12-19T03:58:50;50.10;;;20.83;;
5742;SDS011;2896;53.500;10.020;2022-12-19T04:01:21;42.17;;;21.73;;
5742;SDS011;2896;53.500;10.020;2022-12-19T04:03:48;44.27;;;21.50;;
5742;SDS011;2896;53.500;10.020;2022-12-19T04:06:17;41.07;;;20.50;;
5742;SDS011;2896;53.500;10.020;2022-12-19T04:08:44;39.70;;;19.47;;
5742;SDS011;2896;53.500;10.020;2022-12-19T04:11:12;40.90;;;19.87;;
5742;SDS011;2896;53.500;10.020;2022-12-19T04:13:43;38.13;;;20.47;;
5742;SDS011;2896;53.500;10.020;2022-12-19T04:16:16;40.80;;;19.47;;
5742;SDS011;2896;53.500;10.020;2022-12-19T04:18:50;41.37;;;19.93;;
5742;SDS011;2896;53.500;10.020;2022-12-19T04:21:22;43.53;;;19.10;;
5742;SDS011;2896;53.500;10.020;2022-12-19T04:23:54;47.37;;;19.20;;
5742;SDS011;2896;53.500;10.020;2022-12-19T04:26:24;36.47;;;18.60;;
5742;SDS011;2896;53.500;10.020;2022-12-19T04:28:53;35.03;;;19.17;;
5742;SDS011;2896;53.500;10.020;2022-12-19T04:31:23;40.17;;;20.17;;
5742;SDS011;2896;53.500;10.020;2022-12-19T04:33:50;42.43;;;19.73;;
5742;SDS011;2896;53.500;10.020;2022-12-19T04:36:16;44.67;;;20.90;;
5742;SDS011;2896;53.500;10.020;2022-12-19T04:38:45;36.93;;;19.67;;
5742;SDS011;2896;53.500;10.020;2022-12-19T04:41:11;38.87;;;20.20;;
5742;SDS011;2896;53.500;10.020;2022-12-19T04:43:38;40.13;;;20.00;;
5742;SDS011;2896;53.500;10.020;2022-12-19T04:46:04;43.27;;;18.10;;
5742;SDS011;2896;53.500;10.020;2022-12-19T04:48:33;35.73;;;18.70;;
5742;SDS011;2896;53.500;10.020;2022-12-19T04:51:00;38.13;;;19.70;;
5742;SDS011;2896;53.500;10.020;2022-12-19T04:53:27;36.57;;;18.97;;
5742;SDS011;2896;53.500;10.020;2022-12-19T04:56:00;39.80;;;19.70;;
5742;SDS011;2896;53.500;10.020;2022-12-19T04:58:27;36.20;;;19.53;;
5742;SDS011;2896;53.500;10.020;2022-12-19T05:00:53;34.03;;;18.90;;
5742;SDS011;2896;53.500;10.020;2022-12-19T05:03:20;41.73;;;19.70;;
5742;SDS011;2896;53.500;10.020;2022-12-19T05:05:47;33.40;;;19.00;;
5742;SDS011;2896;53.500;10.020;2022-12-19T05:08:14;39.00;;;19.33;;
5742;SDS011;2896;53.500;10.020;2022-12-19T05:10:40;40.13;;;19.67;;
5742;SDS011;2896;53.500;10.020;2022-12-19T05:13:08;39.80;;;19.00;;
5742;SDS011;2896;53.500;10.020;2022-12-19T05:15:35;37.97;;;20.10;;
5742;SDS011;2896;53.500;10.020;2022-12-19T05:18:01;30.30;;;17.50;;
5742;SDS011;2896;53.500;10.020;2022-12-19T05:20:28;36.00;;;19.60;;
5742;SDS011;2896;53.500;10.020;2022-12-19T05:22:55;38.50;;;18.37;;
5742;SDS011;2896;53.500;10.020;2022-12-19T05:25:21;35.03;;;18.60;;
5742;SDS011;2896;53.500;10.020;2022-12-19T05:27:48;38.00;;;19.27;;
5742;SDS011;2896;53.500;10.020;2022-12-19T05:30:16;33.73;;;18.17;;
5742;SDS011;2896;53.500;10.020;2022-12-19T05:32:43;33.03;;;19.47;;
5742;SDS011;2896;53.500;10.020;2022-12-19T05:35:09;36.70;;;18.57;;
5742;SDS011;2896;53.500;10.020;2022-12-19T05:37:36;40.30;;;19.53;;
5742;SDS011;2896;53.500;10.020;2022-12-19T05:40:03;36.47;;;19.23;;
5742;SDS011;2896;53.500;10.020;2022-12-19T05:42:30;40.30;;;19.67;;
5742;SDS011;2896;53.500;10.020;2022-12-19T05:44:56;43.27;;;21.63;;
5742;SDS011;2896;53.500;10.020;2022-12-19T05:47:24;33.97;;;18.00;;
5742;SDS011;2896;53.500;10.020;2022-12-19T05:49:51;33.10;;;18.30;;
5742;SDS011;2896;53.500;10.020;2022-12-19T05:52:17;37.30;;;19.37;;
5742;SDS011;2896;53.500;10.020;2022-12-19T05:54:44;30.80;;;17.90;;
5742;SDS011;2896;53.500;10.020;2022-12-19T05:57:11;36.10;;;18.50;;
5742;SDS011;2896;53.500;10.020;2022-12-19T05:59:37;44.50;;;20.93;;
5742;SDS011;2896;53.500;10.020;2022-12-19T06:02:04;37.07;;;19.70;;
5742;SDS011;2896;53.500;10.020;2022-12-19T06:04:32;39.87;;;20.30;;
5742;SDS011;2896;53.500;10.020;2022-12-19T06:07:02;40.13;;;19.63;;
5742;SDS011;2896;53.500;10.020;2022-12-19T06:09:29;31.90;;;18.00;;
5742;SDS011;2896;53.500;10.020;2022-12-19T06:11:56;35.37;;;19.60;;
5742;SDS011;2896;53.500;10.020;2022-12-19T06:14:22;43.00;;;20.30;;
5742;SDS011;2896;53.500;10.020;2022-12-19T06:16:49;32.07;;;18.30;;
5742;SDS011;2896;53.500;10.020;2022-12-19T06:19:15;49.70;;;18.40;;
5742;SDS011;2896;53.500;10.020;2022-12-19T06:21:46;36.10;;;17.97;;
5742;SDS011;2896;53.500;10.020;2022-12-19T06:24:13;35.90;;;18.10;;
5742;SDS011;2896;53.500;10.020;2022-12-19T06:26:39;35.60;;;19.63;;
5742;SDS011;2896;53.500;10.020;2022-12-19T06:29:06;34.33;;;18.27;;
5742;SDS011;2896;53.500;10.020;2022-12-19T06:31:32;31.57;;;17.40;;
5742;SDS011;2896;53.500;10.020;2022-12-19T06:33:59;35.07;;;18.60;;
5742;SDS011;2896;53.500;10.020;2022-12-19T06:36:27;34.60;;;18.00;;
5742;SDS011;2896;53.500;10.020;2022-12-19T06:38:56;36.13;;;17.40;;
5742;SDS011;2896;53.500;10.020;2022-12-19T06:41:23;35.00;;;18.50;;
5742;SDS011;2896;53.500;10.020;2022-12-19T06:44:09;34.80;;;17.80;;
5742;SDS011;2896;53.500;10.020;2022-12-19T06:46:36;28.53;;;18.23;;
5742;SDS011;2896;53.500;10.020;2022-12-19T06:49:03;38.20;;;19.63;;
5742;SDS011;2896;53.500;10.020;2022-12-19T06:51:30;41.30;;;19.03;;
5742;SDS011;2896;53.500;10.020;2022-12-19T06:53:58;34.07;;;18.70;;
5742;SDS011;2896;53.500;10.020;2022-12-19T06:56:25;35.47;;;18.27;;
5742;SDS011;2896;53.500;10.020;2022-12-19T06:58:52;33.93;;;18.50;;
5742;SDS011;2896;53.500;10.020;2022-12-19T07:01:19;36.17;;;19.13;;
5742;SDS011;2896;53.500;10.020;2022-12-19T07:03:49;35.67;;;18.90;;
5742;SDS011;2896;53.500;10.020;2022-12-19T07:06:16;39.23;;;19.47;;
5742;SDS011;2896;53.500;10.020;2022-12-19T07:08:42;36.33;;;19.27;;
5742;SDS011;2896;53.500;10.020;2022-12-19T07:11:10;32.33;;;17.07;;
5742;SDS011;2896;53.500;10.020;2022-12-19T07:13:37;27.83;;;16.93;;
5742;SDS011;2896;53.500;10.020;2022-12-19T07:16:04;40.80;;;19.70;;
5742;SDS011;2896;53.500;10.020;2022-12-19T07:18:33;37.97;;;17.97;;
5742;SDS011;2896;53.500;10.020;2022-12-19T07:21:01;30.83;;;16.77;;
5742;SDS011;2896;53.500;10.020;2022-12-19T07:23:29;38.57;;;17.90;;
5742;SDS011;2896;53.500;10.020;2022-12-19T07:25:56;39.47;;;19.60;;
5742;SDS011;2896;53.500;10.020;2022-12-19T07:28:24;35.87;;;18.50;;
5742;SDS011;2896;53.500;10.020;2022-12-19T07:30:51;35.70;;;18.73;;
5742;SDS011;2896;53.500;10.020;2022-12-19T07:33:18;31.93;;;17.00;;
5742;SDS011;2896;53.500;10.020;2022-12-19T07:35:45;43.30;;;17.60;;
5742;SDS011;2896;53.500;10.020;2022-12-19T07:38:11;38.10;;;18.63;;
5742;SDS011;2896;53.500;10.020;2022-12-19T07:40:38;37.00;;;18.90;;
5742;SDS011;2896;53.500;10.020;2022-12-19T07:43:05;39.87;;;21.40;;
5742;SDS011;2896;53.500;10.020;2022-12-19T07:45:34;32.20;;;17.40;;
5742;SDS011;2896;53.500;10.020;2022-12-19T07:48:02;35.97;;;18.37;;
5742;SDS011;2896;53.500;10.020;2022-12-19T07:50:30;39.93;;;19.33;;
5742;SDS011;2896;53.500;10.020;2022-12-19T07:52:56;35.83;;;19.33;;
5742;SDS011;2896;53.500;10.020;2022-12-19T07:55:23;48.13;;;21.77;;
5742;SDS011;2896;53.500;10.020;2022-12-19T07:57:50;42.33;;;20.33;;
5742;SDS011;2896;53.500;10.020;2022-12-19T08:00:17;45.07;;;19.10;;
5742;SDS011;2896;53.500;10.020;2022-12-19T08:02:46;37.17;;;19.30;;
5742;SDS011;2896;53.500;10.020;2022-12-19T08:05:13;42.23;;;19.63;;
5742;SDS011;2896;53.500;10.020;2022-12-19T08:07:40;39.63;;;18.93;;
5742;SDS011;2896;53.500;10.020;2022-12-19T08:10:07;38.87;;;19.50;;
5742;SDS011;2896;53.500;10.020;2022-12-19T08:12:35;47.33;;;20.70;;
5742;SDS011;2896;53.500;10.020;2022-12-19T08:15:02;48.13;;;20.20;;
5742;SDS011;2896;53.500;10.020;2022-12-19T08:17:29;38.23;;;19.50;;
5742;SDS011;2896;53.500;10.020;2022-12-19T08:19:57;33.73;;;18.10;;
5742;SDS011;2896;53.500;10.020;2022-12-19T08:22:24;43.47;;;20.10;;
5742;SDS011;2896;53.500;10.020;2022-12-19T08:24:50;43.33;;;20.20;;
5742;SDS011;2896;53.500;10.020;2022-12-19T08:27:17;53.23;;;22.33;;
5742;SDS011;2896;53.500;10.020;2022-12-19T08:29:44;43.80;;;21.07;;
5742;SDS011;2896;53.500;10.020;2022-12-19T08:32:11;52.43;;;22.97;;
5742;SDS011;2896;53.500;10.020;2022-12-19T08:34:39;43.53;;;21.87;;
5742;SDS011;2896;53.500;10.020;2022-12-19T08:37:07;46.80;;;23.07;;
5742;SDS011;2896;53.500;10.020;2022-12-19T08:39:34;52.40;;;22.40;;
5742;SDS011;2896;53.500;10.020;2022-12-19T08:42:01;63.03;;;24.97;;
5742;SDS011;2896;53.500;10.020;2022-12-19T08:44:28;55.47;;;22.53;;
5742;SDS011;2896;53.500;10.020;2022-12-19T08:46:54;69.93;;;22.80;;
5742;SDS011;2896;53.500;10.020;2022-12-19T08:49:21;63.80;;;22.17;;
5742;SDS011;2896;53.500;10.020;2022-12-19T08:51:48;50.47;;;21.67;;
5742;SDS011;2896;53.500;10.020;2022-12-19T08:54:16;57.33;;;22.97;;
5742;SDS011;2896;53.500;10.020;2022-12-19T08:56:42;52.70;;;25.10;;
5742;SDS011;2896;53.500;10.020;2022-12-19T08:59:09;50.53;;;21.87;;
5742;SDS011;2896;53.500;10.020;2022-12-19T09:01:36;45.93;;;21.93;;
5742;SDS011;2896;53.500;10.020;2022-12-19T09:04:02;70.30;;;25.00;;
5742;SDS011;2896;53.500;10.020;2022-12-19T09:06:30;56.37;;;24.10;;
5742;SDS011;2896;53.500;10.020;2022-12-19T09:08:57;52.57;;;23.63;;
5742;SDS011;2896;53.500;10.020;2022-12-19T09:11:25;56.77;;;23.97;;
5742;SDS011;2896;53.500;10.020;2022-12-19T09:13:51;56.33;;;23.63;;
5742;SDS011;2896;53.500;10.020;2022-12-19T09:16:22;50.33;;;24.57;;
5742;SDS011;2896;53.500;10.020;2022-12-19T09:18:50;61.53;;;23.90;;
5742;SDS011;2896;53.500;10.020;2022-12-19T09:21:19;55.77;;;24.10;;
5742;SDS011;2896;53.500;10.020;2022-12-19T09:23:47;55.43;;;24.57;;
5742;SDS011;2896;53.500;10.020;2022-12-19T09:26:14;56.03;;;23.47;;
5742;SDS011;2896;53.500;10.020;2022-12-19T09:28:44;65.00;;;25.20;;
5742;SDS011;2896;53.500;10.020;2022-12-19T09:31:12;51.90;;;24.73;;
5742;SDS011;2896;53.500;10.020;2022-12-19T09:33:42;59.90;;;25.50;;
5742;SDS011;2896;53.500;10.020;2022-12-19T09:36:11;59.57;;;24.87;;
5742;SDS011;2896;53.500;10.020;2022-12-19T09:38:38;60.77;;;25.93;;
5742;SDS011;2896;53.500;10.020;2022-12-19T09:44:02;56.33;;;25.17;;
5742;SDS011;2896;53.500;10.020;2022-12-19T09:46:38;53.30;;;24.13;;
5742;SDS011;2896;53.500;10.020;2022-12-19T09:49:13;51.33;;;23.67;;
5742;SDS011;2896;53.500;10.020;2022-12-19T09:51:45;57.17;;;26.10;;
5742;SDS011;2896;53.500;10.020;2022-12-19T09:54:19;55.03;;;22.80;;
5742;SDS011;2896;53.500;10.020;2022-12-19T09:56:50;65.00;;;25.80;;
5742;SDS011;2896;53.500;10.020;2022-12-19T09:59:25;56.27;;;24.07;;
5742;SDS011;2896;53.500;10.020;2022-12-19T10:01:55;56.07;;;23.97;;
5742;SDS011;2896;53.500;10.020;2022-12-19T10:04:26;50.57;;;24.90;;
5742;SDS011;2896;53.500;10.020;2022-12-19T10:06:58;62.50;;;25.00;;
5742;SDS011;2896;53.500;10.020;2022-12-19T10:09:26;51.67;;;23.93;;
5742;SDS011;2896;53.500;10.020;2022-12-19T10:12:00;51.77;;;24.17;;
5742;SDS011;2896;53.500;10.020;2022-12-19T10:14:44;52.77;;;24.27;;
5742;SDS011;2896;53.500;10.020;2022-12-19T10:17:21;56.77;;;23.50;;
5742;SDS011;2896;53.500;10.020;2022-12-19T10:20:02;53.33;;;24.70;;
5742;SDS011;2896;53.500;10.020;2022-12-19T10:22:39;60.90;;;23.87;;
5742;SDS011;2896;53.500;10.020;2022-12-19T10:25:16;52.77;;;22.47;;
5742;SDS011;2896;53.500;10.020;2022-12-19T10:28:05;49.83;;;22.33;;
5742;SDS011;2896;53.500;10.020;2022-12-19T10:30:44;54.87;;;23.50;;
5742;SDS011;2896;53.500;10.020;2022-12-19T10:33:19;59.27;;;24.53;;
5742;SDS011;2896;53.500;10.020;2022-12-19T10:35:52;47.73;;;21.77;;
5742;SDS011;2896;53.500;10.020;2022-12-19T10:38:23;52.50;;;22.43;;
5742;SDS011;2896;53.500;10.020;2022-12-19T10:40:54;48.67;;;21.70;;
5742;SDS011;2896;53.500;10.020;2022-12-19T10:43:39;47.40;;;22.40;;
5742;SDS011;2896;53.500;10.020;2022-12-19T10:46:12;51.93;;;22.20;;
5742;SDS011;2896;53.500;10.020;2022-12-19T10:48:42;47.87;;;22.27;;
5742;SDS011;2896;53.500;10.020;2022-12-19T10:51:10;60.00;;;22.97;;
5742;SDS011;2896;53.500;10.020;2022-12-19T10:53:38;54.47;;;22.33;;
5742;SDS011;2896;53.500;10.020;2022-12-19T10:56:10;41.40;;;21.57;;
5742;SDS011;2896;53.500;10.020;2022-12-19T10:58:41;44.40;;;23.50;;
5742;SDS011;2896;53.500;10.020;2022-12-19T11:01:09;50.83;;;23.17;;
5742;SDS011;2896;53.500;10.020;2022-12-19T11:03:40;45.90;;;21.20;;
5742;SDS011;2896;53.500;10.020;2022-12-19T11:09:16;53.00;;;21.70;;
5742;SDS011;2896;53.500;10.020;2022-12-19T11:11:49;48.33;;;21.43;;
5742;SDS011;2896;53.500;10.020;2022-12-19T11:14:24;52.33;;;21.20;;
5742;SDS011;2896;53.500;10.020;2022-12-19T11:16:53;47.13;;;20.87;;
5742;SDS011;2896;53.500;10.020;2022-12-19T11:19:20;56.23;;;23.07;;
5742;SDS011;2896;53.500;10.020;2022-12-19T11:21:51;47.67;;;21.53;;
5742;SDS011;2896;53.500;10.020;2022-12-19T11:24:21;43.00;;;20.57;;
5742;SDS011;2896;53.500;10.020;2022-12-19T11:26:50;50.63;;;23.50;;
5742;SDS011;2896;53.500;10.020;2022-12-19T11:29:20;53.23;;;24.07;;
5742;SDS011;2896;53.500;10.020;2022-12-19T11:31:54;46.63;;;22.60;;
5742;SDS011;2896;53.500;10.020;2022-12-19T11:34:24;47.50;;;20.70;;
5742;SDS011;2896;53.500;10.020;2022-12-19T11:36:53;43.90;;;21.03;;
5742;SDS011;2896;53.500;10.020;2022-12-19T11:39:30;47.53;;;21.10;;
5742;SDS011;2896;53.500;10.020;2022-12-19T11:42:00;47.57;;;22.00;;
5742;SDS011;2896;53.500;10.020;2022-12-19T11:44:33;52.57;;;23.13;;
5742;SDS011;2896;53.500;10.020;2022-12-19T11:47:08;50.60;;;20.77;;
5742;SDS011;2896;53.500;10.020;2022-12-19T11:49:43;44.57;;;20.87;;
5742;SDS011;2896;53.500;10.020;2022-12-19T11:52:15;58.23;;;21.03;;
5742;SDS011;2896;53.500;10.020;2022-12-19T11:54:49;63.33;;;23.53;;
5742;SDS011;2896;53.500;10.020;2022-12-19T11:57:23;45.73;;;22.60;;
5742;SDS011;2896;53.500;10.020;2022-12-19T11:59:50;54.33;;;23.10;;
5742;SDS011;2896;53.500;10.020;2022-12-19T12:02:33;51.10;;;23.73;;
5742;SDS011;2896;53.500;10.020;2022-12-19T12:05:23;54.43;;;24.23;;
5742;SDS011;2896;53.500;10.020;2022-12-19T12:08:16;59.97;;;25.50;;
5742;SDS011;2896;53.500;10.020;2022-12-19T12:10:58;57.10;;;24.97;;
5742;SDS011;2896;53.500;10.020;2022-12-19T12:13:26;61.70;;;25.43;;
5742;SDS011;2896;53.500;10.020;2022-12-19T12:16:03;43.40;;;22.47;;
5742;SDS011;2896;53.500;10.020;2022-12-19T12:18:39;55.13;;;23.80;;
5742;SDS011;2896;53.500;10.020;2022-12-19T12:21:21;47.13;;;23.23;;
5742;SDS011;2896;53.500;10.020;2022-12-19T12:23:53;64.90;;;25.60;;
5742;SDS011;2896;53.500;10.020;2022-12-19T12:26:31;47.13;;;22.93;;
5742;SDS011;2896;53.500;10.020;2022-12-19T12:29:02;56.77;;;23.70;;
5742;SDS011;2896;53.500;10.020;2022-12-19T12:31:38;46.43;;;23.53;;
5742;SDS011;2896;53.500;10.020;2022-12-19T12:34:19;45.30;;;22.97;;
5742;SDS011;2896;53.500;10.020;2022-12-19T12:37:04;69.70;;;24.73;;
5742;SDS011;2896;53.500;10.020;2022-12-19T12:39:43;48.13;;;21.97;;
5742;SDS011;2896;53.500;10.020;2022-12-19T12:42:21;49.83;;;24.50;;
5742;SDS011;2896;53.500;10.020;2022-12-19T12:45:09;44.10;;;21.93;;
5742;SDS011;2896;53.500;10.020;2022-12-19T12:47:47;50.37;;;22.40;;
5742;SDS011;2896;53.500;10.020;2022-12-19T12:50:18;41.60;;;19.50;;
5742;SDS011;2896;53.500;10.020;2022-12-19T12:52:48;44.07;;;23.13;;
5742;SDS011;2896;53.500;10.020;2022-12-19T12:55:19;57.27;;;24.20;;
5742;SDS011;2896;53.500;10.020;2022-12-19T12:57:51;45.37;;;21.10;;
5742;SDS011;2896;53.500;10.020;2022-12-19T13:00:22;51.50;;;24.33;;
5742;SDS011;2896;53.500;10.020;2022-12-19T13:02:55;56.53;;;24.10;;
5742;SDS011;2896;53.500;10.020;2022-12-19T13:05:39;47.20;;;22.63;;
5742;SDS011;2896;53.500;10.020;2022-12-19T13:08:29;45.50;;;21.07;;
5742;SDS011;2896;53.500;10.020;2022-12-19T13:11:00;48.97;;;22.13;;
5742;SDS011;2896;53.500;10.020;2022-12-19T13:13:49;41.50;;;20.53;;
5742;SDS011;2896;53.500;10.020;2022-12-19T13:19:15;42.77;;;21.27;;
5742;SDS011;2896;53.500;10.020;2022-12-19T13:24:45;42.47;;;21.63;;
5742;SDS011;2896;53.500;10.020;2022-12-19T13:27:30;59.63;;;22.33;;
5742;SDS011;2896;53.500;10.020;2022-12-19T13:30:18;61.00;;;27.37;;
5742;SDS011;2896;53.500;10.020;2022-12-19T13:35:32;47.43;;;24.70;;
5742;SDS011;2896;53.500;10.020;2022-12-19T13:38:02;35.83;;;19.90;;
5742;SDS011;2896;53.500;10.020;2022-12-19T13:40:53;56.23;;;28.93;;
5742;SDS011;2896;53.500;10.020;2022-12-19T13:43:23;40.17;;;22.60;;
5742;SDS011;2896;53.500;10.020;2022-12-19T13:46:20;51.40;;;23.47;;
5742;SDS011;2896;53.500;10.020;2022-12-19T13:48:49;67.00;;;28.83;;
5742;SDS011;2896;53.500;10.020;2022-12-19T13:51:18;66.00;;;28.27;;
5742;SDS011;2896;53.500;10.020;2022-12-19T13:53:50;58.43;;;25.77;;
5742;SDS011;2896;53.500;10.020;2022-12-19T13:56:18;58.97;;;28.37;;
5742;SDS011;2896;53.500;10.020;2022-12-19T13:58:46;52.33;;;28.33;;
5742;SDS011;2896;53.500;10.020;2022-12-19T14:01:15;55.60;;;27.27;;
5742;SDS011;2896;53.500;10.020;2022-12-19T14:03:44;60.70;;;28.10;;
5742;SDS011;2896;53.500;10.020;2022-12-19T14:06:15;72.50;;;33.30;;
5742;SDS011;2896;53.500;10.020;2022-12-19T14:08:47;68.03;;;31.70;;
5742;SDS011;2896;53.500;10.020;2022-12-19T14:11:15;63.37;;;30.63;;
5742;SDS011;2896;53.500;10.020;2022-12-19T14:13:44;67.87;;;30.07;;
5742;SDS011;2896;53.500;10.020;2022-12-19T14:16:31;72.40;;;30.83;;
5742;SDS011;2896;53.500;10.020;2022-12-19T14:18:58;67.43;;;32.30;;
5742;SDS011;2896;53.500;10.020;2022-12-19T14:21:25;79.10;;;32.87;;
5742;SDS011;2896;53.500;10.020;2022-12-19T14:24:08;80.13;;;33.20;;
5742;SDS011;2896;53.500;10.020;2022-12-19T14:26:36;76.37;;;32.90;;
5742;SDS011;2896;53.500;10.020;2022-12-19T14:29:05;65.00;;;30.03;;
5742;SDS011;2896;53.500;10.020;2022-12-19T14:31:37;74.83;;;33.03;;
5742;SDS011;2896;53.500;10.020;2022-12-19T14:34:07;72.37;;;32.50;;
5742;SDS011;2896;53.500;10.020;2022-12-19T14:36:41;77.00;;;37.30;;
5742;SDS011;2896;53.500;10.020;2022-12-19T14:39:16;68.30;;;33.50;;
5742;SDS011;2896;53.500;10.020;2022-12-19T14:41:45;69.40;;;31.80;;
5742;SDS011;2896;53.500;10.020;2022-12-19T14:44:47;61.13;;;29.70;;
5742;SDS011;2896;53.500;10.020;2022-12-19T14:47:19;73.00;;;31.97;;
5742;SDS011;2896;53.500;10.020;2022-12-19T14:49:48;65.07;;;32.90;;
5742;SDS011;2896;53.500;10.020;2022-12-19T14:52:32;59.43;;;30.87;;
5742;SDS011;2896;53.500;10.020;2022-12-19T14:55:24;65.93;;;31.00;;
5742;SDS011;2896;53.500;10.020;2022-12-19T14:57:54;65.50;;;29.10;;
5742;SDS011;2896;53.500;10.020;2022-12-19T15:00:24;61.57;;;30.10;;
5742;SDS011;2896;53.500;10.020;2022-12-19T15:02:53;59.43;;;31.20;;
5742;SDS011;2896;53.500;10.020;2022-12-19T15:05:21;56.83;;;30.37;;
5742;SDS011;2896;53.500;10.020;2022-12-19T15:07:49;60.07;;;29.00;;